Time;durP1;ratioP1;P1;durP2;ratioP2;P2;SDS_P1;SDS_P2;PMS_P1;PMS_P2;Temp;Humidity;BMP_temperature;BMP_pressure;BME280_temperature;BME280_humidity;BME280_pressure;Samples;Min_cycle;Max_cycle;Signal;HPM_P1;HPM_P2
2023/01/06 00:00:35;;;;;;;1.67;1.25;;;;;;;7.58;100.00;98323.52;1689051;83;21706;-66
2023/01/06 00:03:03;;;;;;;1.55;1.02;;;;;;;7.49;100.00;98333.61;1720887;81;21059;-67
2023/01/06 00:05:30;;;;;;;1.45;1.15;;;;;;;7.52;100.00;98336.92;1722978;81;21915;-68
2023/01/06 00:07:56;;;;;;;1.55;1.22;;;;;;;7.55;100.00;98345.06;1716142;82;21695;-67
2023/01/06 00:10:24;;;;;;;0.50;0.50;;;;;;;7.49;100.00;98345.38;1718096;81;21425;-68
2023/01/06 00:12:51;;;;;;;0.88;0.80;;;;;;;7.57;100.00;98338.84;1720963;81;21466;-67
2023/01/06 00:15:18;;;;;;;0.75;0.70;;;;;;;7.50;100.00;98349.70;1719931;82;21455;-66
2023/01/06 00:17:45;;;;;;;1.42;0.72;;;;;;;7.50;100.00;98349.70;1705086;82;22056;-67
2023/01/06 00:20:12;;;;;;;0.72;0.60;;;;;;;7.54;100.00;98349.92;1721463;81;21432;-67
2023/01/06 00:22:39;;;;;;;0.82;0.82;;;;;;;7.57;100.00;98347.13;1712860;81;21549;-66
2023/01/06 00:25:09;;;;;;;0.82;0.80;;;;;;;7.59;100.00;98356.61;1721767;82;21523;-66
2023/01/06 00:27:38;;;;;;;0.68;0.55;;;;;;;7.59;100.00;98343.97;1717665;81;21518;-67
2023/01/06 00:30:08;;;;;;;0.57;0.57;;;;;;;7.59;100.00;98359.23;1714424;82;21948;-66
2023/01/06 00:32:35;;;;;;;0.70;0.60;;;;;;;7.68;100.00;98360.98;1721562;81;21554;-66
2023/01/06 00:35:02;;;;;;;0.63;0.60;;;;;;;7.68;100.00;98369.66;1707789;82;21510;-67
2023/01/06 00:37:29;;;;;;;;;;;;;;;7.68;100.00;98368.36;1723114;81;20992;-66
2023/01/06 00:39:56;;;;;;;2.02;0.68;;;;;;;7.59;100.00;98376.67;1722010;81;20273;-68
2023/01/06 00:42:23;;;;;;;0.40;0.40;;;;;;;7.64;100.00;98377.29;1716726;81;21799;-67
2023/01/06 00:44:51;;;;;;;0.50;0.50;;;;;;;7.65;100.00;98390.77;1719995;82;21045;-66
2023/01/06 00:47:18;;;;;;;0.95;0.60;;;;;;;7.68;100.00;98378.82;1717307;82;21600;-67
2023/01/06 00:49:45;;;;;;;;;;;;;;;7.57;100.00;98390.29;1711861;82;21487;-66
2023/01/06 00:52:12;;;;;;;0.70;0.70;;;;;;;7.50;100.00;98391.08;1676668;83;20440;-68
2023/01/06 00:54:38;;;;;;;0.60;0.60;;;;;;;7.50;100.00;98391.08;1698646;82;22168;-66
2023/01/06 00:57:06;;;;;;;0.72;0.60;;;;;;;7.52;100.00;98391.84;1724836;81;21560;-65
2023/01/06 00:59:33;;;;;;;0.40;0.40;;;;;;;7.50;100.00;98392.39;1727138;81;21547;-66
2023/01/06 01:02:01;;;;;;;1.22;0.72;;;;;;;7.50;100.00;98397.62;1724172;81;21587;-64
2023/01/06 01:04:28;;;;;;;1.20;0.53;;;;;;;7.55;100.00;98405.22;1726838;81;21572;-68
2023/01/06 01:06:55;;;;;;;0.60;0.60;;;;;;;7.56;100.00;98405.62;1716648;82;21799;-69
2023/01/06 01:09:28;;;;;;;0.82;0.50;;;;;;;7.52;100.00;98408.01;1724452;81;21611;-69
2023/01/06 01:12:13;;;;;;;1.75;0.30;;;;;;;7.55;100.00;98405.22;1725338;81;21057;-67
2023/01/06 01:14:46;;;;;;;0.70;0.60;;;;;;;7.52;100.00;98409.31;1716523;82;21643;-68
2023/01/06 01:17:19;;;;;;;1.92;0.57;;;;;;;7.56;100.00;98407.77;1725926;81;21674;-65
2023/01/06 01:19:48;;;;;;;0.55;0.55;;;;;;;7.55;100.00;98411.32;1723910;81;23565;-65
2023/01/06 01:22:14;;;;;;;0.50;0.33;;;;;;;7.59;100.00;98414.16;1726139;81;21660;-66
2023/01/06 01:24:41;;;;;;;1.20;0.47;;;;;;;7.58;100.00;98412.45;1724638;81;21553;-67
2023/01/06 01:27:08;;;;;;;0.62;0.50;;;;;;;7.63;100.00;98420.53;1713158;82;21549;-68
2023/01/06 01:29:36;;;;;;;0.30;0.30;;;;;;;7.63;100.00;98417.47;1715351;81;21624;-68
2023/01/06 01:32:03;;;;;;;0.57;0.55;;;;;;;7.67;100.00;98419.48;1667642;84;21833;-68
2023/01/06 01:34:29;;;;;;;0.40;0.40;;;;;;;7.64;100.00;98425.69;1698251;83;21079;-68
2023/01/06 01:36:56;;;;;;;1.12;0.60;;;;;;;7.66;100.00;98429.07;1669326;84;21495;-68
2023/01/06 01:39:26;;;;;;;0.50;0.50;;;;;;;7.68;100.00;98432.45;1668036;84;22019;-66
2023/01/06 01:41:53;;;;;;;2.12;0.55;;;;;;;7.68;100.00;98431.14;1698324;83;21425;-66
2023/01/06 01:45:03;;;;;;;0.93;0.50;;;;;;;7.60;100.00;98430.22;1666451;84;21552;-67
2023/01/06 01:47:48;;;;;;;0.57;0.55;;;;;;;7.60;100.00;98423.69;1724253;81;21557;-65
2023/01/06 01:50:36;;;;;;;0.42;0.42;;;;;;;7.60;100.00;98426.77;1718367;81;21518;-65
2023/01/06 01:53:10;;;;;;;1.00;0.50;;;;;;;7.59;100.00;98428.98;1707278;82;21064;-68
2023/01/06 01:55:36;;;;;;;0.80;0.50;;;;;;;7.60;100.00;98433.31;1738128;81;21508;-68
2023/01/06 01:58:14;;;;;;;0.40;0.40;;;;;;;7.61;100.00;98444.17;1716598;81;21855;-67
2023/01/06 02:00:42;;;;;;;0.75;0.50;;;;;;;7.62;100.00;98440.62;1739105;81;21542;-67
2023/01/06 02:03:09;;;;;;;0.30;0.30;;;;;;;7.70;100.00;98453.31;1739732;81;21568;-65
2023/01/06 02:05:38;;;;;;;0.37;0.37;;;;;;;7.68;100.00;98456.00;1742095;80;21080;-68
2023/01/06 02:08:11;;;;;;;0.40;0.40;;;;;;;7.57;100.00;98452.63;1739141;81;21426;-67
2023/01/06 02:10:38;;;;;;;0.78;0.40;;;;;;;7.56;100.00;98460.08;1741790;81;21858;-67
2023/01/06 02:13:05;;;;;;;0.45;0.45;;;;;;;7.54;100.00;98471.55;1735785;81;21403;-67
2023/01/06 02:15:32;;;;;;;0.30;0.30;;;;;;;7.54;100.00;98475.01;1742422;81;21052;-68
2023/01/06 02:18:11;;;;;;;0.37;0.35;;;;;;;7.55;100.00;98483.25;1696518;81;21052;-67
2023/01/06 02:20:53;;;;;;;0.53;0.53;;;;;;;7.55;100.00;98496.33;1741873;81;21508;-68
2023/01/06 02:23:37;;;;;;;0.40;0.40;;;;;;;7.44;100.00;98497.31;1742184;81;21890;-66
2023/01/06 02:26:34;;;;;;;0.55;0.55;;;;;;;7.22;100.00;98494.87;1739745;81;21485;-67
2023/01/06 02:29:39;;;;;;;0.70;0.70;;;;;;;7.07;100.00;98498.20;1739347;81;21586;-69
2023/01/06 02:32:34;;;;;;;1.25;0.80;;;;;;;6.96;100.00;98509.15;1730752;81;21569;-68
2023/01/06 02:35:19;;;;;;;0.70;0.70;;;;;;;6.89;100.00;98520.33;1741405;81;21560;-68
2023/01/06 02:38:04;;;;;;;0.90;0.90;;;;;;;6.72;100.00;98528.93;1740071;80;21869;-66
2023/01/06 02:41:00;;;;;;;2.05;1.02;;;;;;;6.57;100.00;98538.33;1740607;81;21043;-67
2023/01/06 02:43:35;;;;;;;1.10;1.00;;;;;;;6.40;100.00;98542.98;1742193;81;21445;-67
2023/01/06 02:46:10;;;;;;;0.88;0.88;;;;;;;6.11;100.00;98557.72;1728701;81;21612;-66
2023/01/06 02:48:53;;;;;;;0.90;0.90;;;;;;;5.99;100.00;98562.97;1742100;81;21517;-69
2023/01/06 02:51:34;;;;;;;1.00;1.00;;;;;;;5.91;100.00;98576.30;1732125;81;21549;-66
2023/01/06 02:54:25;;;;;;;0.82;0.82;;;;;;;5.80;100.00;98577.19;1754345;80;21639;-67
2023/01/06 02:57:13;;;;;;;0.72;0.72;;;;;;;5.69;100.00;98578.95;1759653;80;21532;-68
2023/01/06 02:59:51;;;;;;;0.60;0.60;;;;;;;5.56;100.00;98594.69;1755449;80;21587;-66
2023/01/06 03:02:18;;;;;;;0.70;0.70;;;;;;;5.50;100.00;98601.42;1753941;80;20985;-65
2023/01/06 03:04:46;;;;;;;0.70;0.70;;;;;;;5.47;100.00;98608.92;1752285;80;21879;-68
2023/01/06 03:07:14;;;;;;;0.40;0.40;;;;;;;5.37;100.00;98618.86;1754792;80;21460;-67
2023/01/06 03:09:41;;;;;;;0.40;0.40;;;;;;;5.30;100.00;98628.27;1757613;80;21517;-66
2023/01/06 03:12:19;;;;;;;3.08;0.60;;;;;;;5.27;100.00;98639.64;1752325;80;21536;-66
2023/01/06 03:14:49;;;;;;;0.68;0.50;;;;;;;5.29;100.00;98645.64;1750138;80;21028;-67
2023/01/06 03:17:15;;;;;;;1.35;0.62;;;;;;;5.30;100.00;98656.94;1756335;80;21892;-69
2023/01/06 03:19:42;;;;;;;1.00;0.60;;;;;;;5.30;100.00;98664.30;1755053;80;21588;-67
2023/01/06 03:22:10;;;;;;;;;;;;;;;5.25;100.00;98657.09;1761198;80;21422;-65
2023/01/06 03:24:36;;;;;;;1.00;0.90;;;;;;;5.10;100.00;98654.59;1756905;80;20421;-67
2023/01/06 03:27:04;;;;;;;0.60;0.60;;;;;;;5.10;100.00;98665.48;1756986;80;21493;-67
2023/01/06 03:29:31;;;;;;;0.90;0.90;;;;;;;5.09;100.00;98672.91;1735396;81;21518;-68
2023/01/06 03:32:19;;;;;;;0.60;0.60;;;;;;;5.08;100.00;98672.04;1754837;80;21615;-65
2023/01/06 03:35:15;;;;;;;0.40;0.40;;;;;;;5.11;100.00;98676.31;1749426;80;21576;-65
2023/01/06 03:38:13;;;;;;;0.80;0.70;;;;;;;5.07;100.00;98688.13;1757208;80;21498;-69
2023/01/06 03:40:55;;;;;;;;;;;;;;;5.03;100.00;98681.80;1760364;80;21564;-65
2023/01/06 03:43:38;;;;;;;0.55;0.55;;;;;;;4.92;100.00;98699.10;1755255;80;20796;-66
2023/01/06 03:46:19;;;;;;;0.47;0.47;;;;;;;4.93;100.00;98710.36;1745085;80;21507;-67
2023/01/06 03:49:07;;;;;;;0.78;0.78;;;;;;;4.91;100.00;98711.72;1757016;80;21493;-67
2023/01/06 03:52:06;;;;;;;0.68;0.68;;;;;;;4.79;100.00;98719.96;1756999;80;21741;-66
2023/01/06 03:54:52;;;;;;;0.50;0.50;;;;;;;4.73;100.00;98734.47;1757490;80;21536;-67
2023/01/06 03:57:30;;;;;;;0.62;0.62;;;;;;;4.70;100.00;98745.02;1758301;80;21744;-68
2023/01/06 04:00:10;;;;;;;0.80;0.80;;;;;;;4.68;100.00;98747.20;1756936;81;21441;-66
2023/01/06 04:02:40;;;;;;;0.80;0.80;;;;;;;4.59;100.00;98755.77;1757510;80;21579;-68
2023/01/06 04:05:15;;;;;;;1.37;1.27;;;;;;;4.59;100.00;98761.82;1757494;80;21477;-66
2023/01/06 04:07:43;;;;;;;1.00;1.00;;;;;;;4.54;100.00;98768.08;1755979;80;21497;-68
2023/01/06 04:10:11;;;;;;;;;;;;;;;4.54;100.00;98778.48;1758729;80;21896;-66
2023/01/06 04:12:38;;;;;;;1.00;1.00;;;;;;;4.46;100.00;98786.55;1756777;80;20345;-65
2023/01/06 04:15:07;;;;;;;1.13;1.10;;;;;;;4.52;100.00;98786.80;1754354;81;21516;-69
2023/01/06 04:17:35;;;;;;;1.30;1.30;;;;;;;4.48;100.00;98795.16;1753310;80;21604;-66
2023/01/06 04:20:05;;;;;;;0.90;0.90;;;;;;;4.49;100.00;98804.22;1744676;80;21611;-66
2023/01/06 04:22:33;;;;;;;1.10;1.10;;;;;;;4.50;100.00;98811.58;1732489;80;21807;-66
2023/01/06 04:24:59;;;;;;;1.40;1.30;;;;;;;4.46;100.00;98817.36;1756730;80;21520;-66
2023/01/06 04:27:27;;;;;;;1.15;1.15;;;;;;;4.42;100.00;98819.63;1756751;80;21552;-66
2023/01/06 04:29:53;;;;;;;1.40;1.20;;;;;;;4.38;100.00;98819.33;1755904;80;21419;-65
2023/01/06 04:32:20;;;;;;;1.45;1.37;;;;;;;4.31;100.00;98828.21;1751889;81;21512;-67
2023/01/06 04:34:47;;;;;;;1.20;1.20;;;;;;;4.18;100.00;98823.85;1757793;80;22014;-68
2023/01/06 04:37:15;;;;;;;1.70;1.60;;;;;;;4.12;100.00;98840.08;1755234;80;22247;-70
2023/01/06 04:39:41;;;;;;;1.60;1.50;;;;;;;4.06;100.00;98850.22;1758412;80;21504;-67
2023/01/06 04:42:08;;;;;;;1.42;1.32;;;;;;;4.06;100.00;98854.96;1757461;80;21533;-67
2023/01/06 04:44:34;;;;;;;1.30;1.20;;;;;;;4.09;100.00;98861.39;1756567;80;21619;-67
2023/01/06 04:47:01;;;;;;;1.60;1.50;;;;;;;4.10;100.00;98865.67;1757141;81;21836;-69
2023/01/06 04:49:28;;;;;;;1.55;1.45;;;;;;;4.13;100.00;98877.77;1757468;80;21521;-65
2023/01/06 04:51:55;;;;;;;1.60;1.50;;;;;;;4.12;100.00;98881.25;1757107;81;21460;-65
2023/01/06 04:54:22;;;;;;;1.90;1.80;;;;;;;4.15;100.00;98884.23;1757865;80;21499;-67
2023/01/06 04:56:48;;;;;;;1.67;1.57;;;;;;;4.14;100.00;98891.62;1759279;80;21421;-65
2023/01/06 04:59:15;;;;;;;1.60;1.50;;;;;;;4.06;100.00;98893.14;1725459;82;22018;-66
2023/01/06 05:01:42;;;;;;;1.92;1.82;;;;;;;3.98;100.00;98907.66;1722474;81;21547;-67
2023/01/06 05:04:09;;;;;;;1.80;1.70;;;;;;;3.93;100.00;98914.73;1724555;81;21554;-66
2023/01/06 05:06:35;;;;;;;1.92;1.82;;;;;;;3.90;100.00;98923.48;1726635;81;21607;-66
2023/01/06 05:09:02;;;;;;;1.95;1.85;;;;;;;3.83;100.00;98931.49;1756173;80;21421;-68
2023/01/06 05:11:28;;;;;;;2.05;1.95;;;;;;;3.78;100.00;98940.70;1759019;79;21920;-67
2023/01/06 05:13:57;;;;;;;2.05;1.95;;;;;;;3.76;100.00;98946.39;1756546;81;21559;-68
2023/01/06 05:16:27;;;;;;;3.58;2.25;;;;;;;3.81;100.00;98954.09;1757408;80;20958;-67
2023/01/06 05:18:54;;;;;;;3.33;2.25;;;;;;;3.78;100.00;98965.41;1748634;80;21426;-68
2023/01/06 05:21:26;;;;;;;2.20;2.10;;;;;;;3.77;100.00;98975.42;1757381;80;21515;-68
2023/01/06 05:23:52;;;;;;;2.58;2.37;;;;;;;3.81;100.00;98982.23;1726057;81;21840;-66
2023/01/06 05:26:24;;;;;;;2.60;2.40;;;;;;;3.76;100.00;98987.15;1756275;80;22335;-70
2023/01/06 05:28:50;;;;;;;2.87;2.67;;;;;;;3.73;100.00;98984.19;1745885;80;21406;-67
2023/01/06 05:31:17;;;;;;;2.60;2.40;;;;;;;3.69;100.00;98989.04;1753122;80;21492;-65
2023/01/06 05:33:45;;;;;;;2.50;2.30;;;;;;;3.71;100.00;98997.65;1748776;80;21536;-64
2023/01/06 05:36:14;;;;;;;2.70;2.50;;;;;;;3.69;100.00;99002.03;1756513;80;21876;-64
2023/01/06 05:38:42;;;;;;;2.83;2.62;;;;;;;3.68;100.00;98997.30;1699497;82;21552;-65
2023/01/06 05:41:09;;;;;;;;;;;;;;;3.69;100.00;98999.02;1700022;83;21616;-64
2023/01/06 05:43:36;;;;;;;2.83;2.62;;;;;;;3.63;100.00;99003.05;1696168;83;20217;-65
2023/01/06 05:46:08;;;;;;;2.60;2.40;;;;;;;3.68;100.00;99007.69;1729034;81;21489;-66
2023/01/06 05:48:37;;;;;;;3.20;2.90;;;;;;;4.90;100.00;99027.84;1756784;79;21525;-67
2023/01/06 05:51:10;;;;;;;2.52;2.33;;;;;;;5.07;100.00;99015.61;1756085;80;21813;-66
2023/01/06 05:53:39;;;;;;;3.08;2.83;;;;;;;5.02;100.00;99011.82;1756860;80;21513;-67
2023/01/06 05:56:08;;;;;;;2.65;2.45;;;;;;;4.95;100.00;99009.45;1755443;80;21087;-67
2023/01/06 05:58:35;;;;;;;3.00;2.80;;;;;;;4.85;100.00;99022.74;1758145;79;21008;-67
2023/01/06 06:03:25;;;;;;;2.75;2.55;;;;;;;4.02;100.00;99032.84;1778658;78;23284;-68
2023/01/06 06:27:47;;;;;;;3.08;2.87;;;;;;;1.48;100.00;99137.83;1851363;76;26798;-60
2023/01/06 06:30:15;;;;;;;2.87;2.67;;;;;;;1.88;100.00;99164.45;1801960;77;20973;-64
2023/01/06 06:32:43;;;;;;;2.67;2.47;;;;;;;2.04;100.00;99180.66;1806722;77;21675;-61
2023/01/06 06:35:11;;;;;;;2.27;2.17;;;;;;;2.11;100.00;99190.47;1817618;77;21533;-63
2023/01/06 06:38:01;;;;;;;2.95;2.75;;;;;;;2.15;100.00;99193.46;1783129;78;21565;-63
2023/01/06 06:40:28;;;;;;;2.70;2.50;;;;;;;2.18;100.00;99197.28;1687973;82;20964;-62
2023/01/06 06:43:00;;;;;;;2.37;2.17;;;;;;;2.15;100.00;99201.25;1653271;83;21018;-63
2023/01/06 06:45:31;;;;;;;2.30;2.10;;;;;;;2.21;100.00;99211.52;1689299;82;22014;-65
2023/01/06 06:47:58;;;;;;;2.15;2.05;;;;;;;2.29;100.00;99207.05;1687177;82;21524;-62
2023/01/06 06:50:25;;;;;;;2.40;2.20;;;;;;;2.30;100.00;99213.97;1688746;82;21533;-63
2023/01/06 06:52:57;;;;;;;1.98;1.85;;;;;;;2.37;100.00;99220.34;1699133;82;21513;-66
2023/01/06 06:55:24;;;;;;;2.10;1.98;;;;;;;2.44;100.00;99228.45;1695329;82;21556;-66
2023/01/06 06:57:53;;;;;;;2.15;2.00;;;;;;;2.45;100.00;99222.36;1686687;82;21714;-66
2023/01/06 07:00:21;;;;;;;1.60;1.45;;;;;;;2.44;100.00;99220.66;1689636;82;21505;-65
2023/01/06 07:02:48;;;;;;;;;;;;;;;2.50;100.00;99224.45;1690174;82;21520;-66
2023/01/06 07:05:17;;;;;;;1.60;1.50;;;;;;;2.36;100.00;99229.03;1653808;84;20457;-65
2023/01/06 07:07:44;;;;;;;1.72;1.62;;;;;;;2.37;100.00;99239.80;1687902;82;21568;-66
2023/01/06 07:10:14;;;;;;;2.00;1.90;;;;;;;2.42;100.00;99256.16;1685319;82;23134;-66
2023/01/06 07:12:42;;;;;;;1.92;1.70;;;;;;;2.40;100.00;99251.00;1662148;83;21635;-65
2023/01/06 07:18:03;;;;;;;1.67;1.57;;;;;;;2.40;100.00;99258.78;1724253;80;21428;-66
2023/01/06 07:20:33;;;;;;;1.80;1.70;;;;;;;2.41;100.00;99270.89;1731068;79;21672;-69
2023/01/06 07:23:00;;;;;;;1.82;1.67;;;;;;;2.48;100.00;99285.91;1755721;79;21750;-65
2023/01/06 07:25:27;;;;;;;2.00;1.87;;;;;;;2.53;100.00;99286.25;1724079;81;21573;-65
2023/01/06 07:27:57;;;;;;;1.85;1.75;;;;;;;2.61;100.00;99295.66;1695378;82;21512;-70
2023/01/06 07:30:25;;;;;;;2.22;2.00;;;;;;;2.61;100.00;99306.04;1727283;80;21600;-65
2023/01/06 07:32:52;;;;;;;2.00;1.80;;;;;;;2.60;100.00;99304.31;1753945;80;21685;-67
2023/01/06 07:35:19;;;;;;;1.80;1.70;;;;;;;2.64;100.00;99315.94;1753511;80;22015;-68
2023/01/06 07:37:46;;;;;;;1.70;1.60;;;;;;;2.49;100.00;99314.88;1725993;81;21097;-64
2023/01/06 07:40:13;;;;;;;1.70;1.60;;;;;;;2.43;100.00;99323.62;1724002;81;21458;-65
2023/01/06 07:42:41;;;;;;;2.10;1.40;;;;;;;2.42;100.00;99319.74;1727255;79;21488;-65
2023/01/06 07:45:09;;;;;;;1.55;1.45;;;;;;;2.41;100.00;99324.08;1722226;81;21526;-65
2023/01/06 07:47:36;;;;;;;1.40;1.30;;;;;;;2.37;100.00;99331.92;1744557;80;21754;-64
2023/01/06 07:50:04;;;;;;;1.45;1.35;;;;;;;2.31;100.00;99336.30;1746786;80;21563;-68
2023/01/06 07:52:31;;;;;;;1.22;1.20;;;;;;;2.27;100.00;99351.50;1744974;80;21635;-67
2023/01/06 07:54:59;;;;;;;2.95;1.37;;;;;;;2.19;100.00;99352.05;1746489;79;21527;-68
2023/01/06 07:57:26;;;;;;;;;;;;;;;2.17;100.00;99371.97;1720902;80;21548;-67
2023/01/06 07:59:57;;;;;;;1.62;1.20;;;;;;;2.18;100.00;99380.61;1697524;81;20684;-67
2023/01/06 08:02:23;;;;;;;1.52;1.42;;;;;;;2.24;100.00;99392.19;1695045;82;21544;-68
2023/01/06 08:04:51;;;;;;;1.50;1.40;;;;;;;2.17;100.00;99395.32;1723769;81;21533;-68
2023/01/06 08:07:18;;;;;;;1.72;1.62;;;;;;;2.17;100.00;99405.70;1695750;81;21095;-65
2023/01/06 08:09:45;;;;;;;2.05;1.87;;;;;;;2.16;100.00;99414.34;1725493;81;21602;-66
2023/01/06 08:12:13;;;;;;;2.15;1.87;;;;;;;2.14;100.00;99423.88;1693405;82;21844;-69
2023/01/06 10:14:17;;;;;;;1.87;1.77;;;;;;;-0.99;100.00;99610.65;1786981;78;23217;-66
2023/01/06 10:17:21;;;;;;;2.98;2.33;;;;;;;-0.46;100.00;99644.78;1760558;80;21528;-67
2023/01/06 10:20:20;;;;;;;2.70;2.50;;;;;;;-0.23;100.00;99649.12;1760914;79;22035;-69
2023/01/06 10:23:01;;;;;;;2.50;2.30;;;;;;;-0.09;100.00;99651.30;1758186;79;21502;-68
2023/01/06 10:25:45;;;;;;;3.00;2.47;;;;;;;0.02;100.00;99642.66;1754586;80;21485;-70
2023/01/06 10:28:39;;;;;;;2.30;2.10;;;;;;;0.05;100.00;99637.50;1767939;79;21459;-69
2023/01/06 10:31:13;;;;;;;2.65;2.27;;;;;;;0.06;100.00;99632.75;1761800;80;21568;-67
2023/01/06 10:33:45;;;;;;;2.75;2.55;;;;;;;0.09;100.00;99639.22;1765058;79;21996;-66
2023/01/06 10:36:13;;;;;;;2.62;2.42;;;;;;;0.13;100.00;99641.83;1763299;80;21521;-63
2023/01/06 10:38:43;;;;;;;2.05;1.92;;;;;;;0.19;100.00;99650.02;1754268;80;21589;-65
2023/01/06 10:41:35;;;;;;;2.52;2.33;;;;;;;0.24;100.00;99652.58;1767390;79;21541;-69
2023/01/06 10:44:02;;;;;;;2.50;2.27;;;;;;;0.31;100.00;99657.73;1768610;80;21442;-64
2023/01/06 10:46:34;;;;;;;1.82;1.72;;;;;;;0.33;100.00;99662.48;1762021;80;22151;-65
2023/01/06 10:49:04;;;;;;;2.08;1.87;;;;;;;0.36;100.00;99658.61;1760250;80;21466;-62
2023/01/06 10:51:36;;;;;;;2.35;1.98;;;;;;;0.36;100.00;99658.61;1759560;80;21472;-62
2023/01/06 10:54:13;;;;;;;2.33;2.17;;;;;;;0.35;100.00;99663.77;1756586;80;21427;-63
2023/01/06 10:56:44;;;;;;;2.00;1.90;;;;;;;0.34;100.00;99673.67;1768753;79;21739;-71
2023/01/06 10:59:12;;;;;;;1.98;1.87;;;;;;;0.32;100.00;99667.64;1758130;79;21799;-69
2023/01/06 11:01:57;;;;;;;1.85;1.75;;;;;;;0.40;100.00;99674.98;1763469;79;21667;-69
2023/01/06 11:04:26;;;;;;;2.27;2.08;;;;;;;0.41;100.00;99680.58;1763238;80;21581;-66
2023/01/06 11:06:59;;;;;;;1.87;1.77;;;;;;;0.47;100.00;99688.35;1764963;80;21667;-67
2023/01/06 11:09:44;;;;;;;2.05;1.85;;;;;;;0.50;100.00;99685.74;1770667;79;21453;-67
2023/01/06 11:12:20;;;;;;;1.90;1.80;;;;;;;0.55;100.00;99684.02;1761655;79;21799;-66
2023/01/06 11:15:00;;;;;;;2.50;2.30;;;;;;;0.51;100.00;99683.59;1698693;83;21575;-66
2023/01/06 11:17:27;;;;;;;1.98;1.82;;;;;;;0.44;100.00;99682.31;1742551;80;22161;-68
2023/01/06 11:20:21;;;;;;;3.22;1.50;;;;;;;0.44;100.00;99684.47;1750256;80;21041;-67
2023/01/06 11:22:48;;;;;;;2.02;1.92;;;;;;;0.43;100.00;99677.55;1744768;80;21513;-65
2023/01/06 11:25:29;;;;;;;1.70;1.60;;;;;;;0.45;100.00;99685.31;1670569;83;22220;-70
2023/01/06 11:28:19;;;;;;;1.50;1.40;;;;;;;0.48;100.00;99686.62;1696908;82;21497;-70
2023/01/06 11:31:07;;;;;;;1.40;1.30;;;;;;;0.51;100.00;99696.94;1753403;80;21571;-63
2023/01/06 11:33:35;;;;;;;;;;;;;;;0.46;100.00;99694.81;1750245;80;21476;-66
2023/01/06 11:36:11;;;;;;;1.40;1.30;;;;;;;0.26;100.00;99694.38;1744009;80;20161;-64
2023/01/06 11:38:45;;;;;;;;;;;;;;;0.36;100.00;99706.91;1746203;80;21401;-63
2023/01/06 11:41:12;;;;;;;1.47;1.37;;;;;;;0.29;100.00;99716.38;1744244;80;20523;-65
2023/01/06 11:43:44;;;;;;;1.55;1.45;;;;;;;0.33;100.00;99732.31;1749429;80;21439;-62
2023/01/06 11:46:11;;;;;;;1.75;1.40;;;;;;;0.37;100.00;99737.06;1744486;80;21579;-65
2023/01/06 11:48:44;;;;;;;;;;;;;;;0.40;100.00;99743.54;1714727;80;21610;-64
2023/01/06 11:51:12;;;;;;;1.98;1.77;;;;;;;0.30;100.00;99743.09;1745179;80;20943;-68
2023/01/06 11:53:39;;;;;;;1.75;1.40;;;;;;;0.35;100.00;99742.67;1758115;80;21462;-68
2023/01/06 11:56:27;;;;;;;1.22;1.12;;;;;;;0.35;100.00;99752.58;1750708;80;20991;-66
2023/01/06 11:59:09;;;;;;;1.40;1.30;;;;;;;0.34;100.00;99742.22;1669979;84;21672;-65
2023/01/06 12:02:02;;;;;;;1.10;1.10;;;;;;;0.33;100.00;99749.13;1670849;84;21113;-65
2023/01/06 12:04:41;;;;;;;1.60;1.50;;;;;;;0.29;100.00;99743.97;1664895;84;22188;-60
2023/01/06 12:07:22;;;;;;;1.52;1.40;;;;;;;0.31;100.00;99741.80;1661117;84;21534;-66
2023/01/06 12:09:50;;;;;;;1.77;1.52;;;;;;;0.34;100.00;99744.80;1669942;84;21537;-64
2023/01/06 12:12:23;;;;;;;1.60;1.50;;;;;;;0.38;100.00;99750.44;1670793;83;21542;-63
2023/01/06 12:14:50;;;;;;;1.65;1.55;;;;;;;0.44;100.00;99759.93;1670309;84;21565;-63
2023/01/06 12:18:03;;;;;;;1.37;1.27;;;;;;;0.52;100.00;99762.08;1665304;84;21549;-66
2023/01/06 12:20:32;;;;;;;1.55;1.45;;;;;;;0.46;100.00;99759.05;1666987;84;21644;-63
2023/01/06 12:23:13;;;;;;;1.57;1.30;;;;;;;0.45;100.00;99764.22;1635686;85;21631;-65
2023/01/06 12:25:45;;;;;;;3.58;1.37;;;;;;;0.38;100.00;99766.81;1664104;84;21466;-63
2023/01/06 12:28:27;;;;;;;3.90;1.70;;;;;;;0.36;100.00;99777.59;1670948;84;21553;-61
2023/01/06 12:31:15;;;;;;;1.87;1.65;;;;;;;0.36;100.00;99780.63;1670482;84;22007;-63
2023/01/06 12:34:06;;;;;;;3.12;1.87;;;;;;;0.31;100.00;99785.77;1670875;84;21530;-61
2023/01/06 12:36:49;;;;;;;1.75;1.62;;;;;;;0.21;100.00;99784.45;1670522;83;21106;-63
2023/01/06 12:39:25;;;;;;;1.95;1.75;;;;;;;0.18;100.00;99787.47;1665468;84;21502;-61
2023/01/06 12:42:15;;;;;;;2.17;1.80;;;;;;;0.09;100.00;99793.91;1666923;83;21574;-63
2023/01/06 12:45:07;;;;;;;2.72;2.05;;;;;;;0.03;100.00;99799.08;1668226;84;21888;-62
2023/01/06 12:47:54;;;;;;;2.72;2.25;;;;;;;0.05;100.00;99813.31;1666492;84;21612;-63
2023/01/06 12:50:43;;;;;;;2.77;1.90;;;;;;;-0.01;100.00;99819.33;1664107;84;21688;-64
2023/01/06 12:53:17;;;;;;;1.85;1.50;;;;;;;-0.06;100.00;99823.20;1670867;83;21451;-67
2023/01/06 12:56:25;;;;;;;2.70;1.52;;;;;;;-0.09;100.00;99837.84;1669915;83;21585;-65
2023/01/06 12:59:15;;;;;;;2.22;1.80;;;;;;;-0.17;100.00;99836.92;1662437;84;22027;-63
2023/01/06 13:02:13;;;;;;;1.65;1.55;;;;;;;-0.25;100.00;99841.63;1663158;84;21600;-61
2023/01/06 13:05:15;;;;;;;1.65;1.55;;;;;;;-0.26;100.00;99849.41;1666019;84;21539;-62
2023/01/06 13:08:12;;;;;;;1.55;1.45;;;;;;;-0.22;100.00;99858.45;1667406;84;21547;-61
2023/01/06 13:11:17;;;;;;;2.00;1.80;;;;;;;-0.17;100.00;99874.41;1666940;84;21439;-63
2023/01/06 13:14:06;;;;;;;1.60;1.50;;;;;;;-0.11;100.00;99877.03;1639720;84;21503;-60
2023/01/06 13:16:48;;;;;;;;;;;;;;;-0.17;100.00;99878.28;1669913;84;21450;-60
2023/01/06 13:19:24;;;;;;;2.35;1.30;;;;;;;-0.28;100.00;99885.56;1665660;84;20478;-62
2023/01/06 13:21:52;;;;;;;1.92;1.45;;;;;;;-0.24;100.00;99892.91;1621078;85;21466;-60
2023/01/06 13:24:37;;;;;;;;;;;;;;;-0.32;100.00;99900.63;1622528;86;21418;-60
2023/01/06 13:27:21;;;;;;;1.82;1.72;;;;;;;-0.39;100.00;99906.61;1625340;86;20810;-61
2023/01/06 13:30:11;;;;;;;1.80;1.70;;;;;;;-0.38;100.00;99913.48;1658595;84;21455;-58
2023/01/06 13:33:09;;;;;;;1.72;1.62;;;;;;;-0.42;100.00;99923.38;1655382;84;21432;-61
2023/01/06 13:35:50;;;;;;;2.35;2.15;;;;;;;-0.46;100.00;99928.09;1665461;84;21610;-61
2023/01/06 13:38:43;;;;;;;1.92;1.72;;;;;;;-0.51;100.00;99924.60;1663706;84;21515;-62
2023/01/06 13:41:15;;;;;;;1.70;1.60;;;;;;;-0.46;100.00;99937.98;1671362;84;21779;-61
2023/01/06 13:43:43;;;;;;;1.70;1.60;;;;;;;-0.48;100.00;99934.53;1662279;84;21419;-61
2023/01/06 13:46:11;;;;;;;1.50;1.40;;;;;;;-0.55;100.00;99936.62;1660558;83;21458;-65
2023/01/06 13:48:42;;;;;;;1.50;1.40;;;;;;;-0.61;100.00;99934.02;1663866;83;21543;-61
2023/01/06 13:51:12;;;;;;;1.25;1.15;;;;;;;-0.64;100.00;99937.84;1664478;84;21475;-61
2023/01/06 13:53:40;;;;;;;1.62;1.52;;;;;;;-0.66;100.00;99937.86;1667348;83;21415;-61
2023/01/06 13:56:16;;;;;;;1.90;1.42;;;;;;;-0.68;100.00;99937.39;1661991;84;21433;-61
2023/01/06 13:58:44;;;;;;;1.82;1.72;;;;;;;-0.78;100.00;99945.50;1651317;83;21566;-60
2023/01/06 14:01:22;;;;;;;1.57;1.47;;;;;;;-0.86;100.00;99954.91;1660202;84;21555;-60
2023/01/06 18:26:33;;;;;;;2.10;1.90;;;;;;;-5.09;100.00;100225.20;1760195;76;23337;-69
2023/01/06 18:29:15;;;;;;;1.85;1.75;;;;;;;-4.70;100.00;100231.45;1666456;82;21237;-67
2023/01/06 18:31:42;;;;;;;2.67;2.42;;;;;;;-4.47;100.00;100235.07;1697139;82;21649;-62
2023/01/06 18:34:24;;;;;;;2.15;1.95;;;;;;;-4.33;100.00;100237.19;1698403;82;21067;-66
2023/01/06 18:36:52;;;;;;;2.30;2.10;;;;;;;-4.24;100.00;100233.97;1691803;81;21527;-64
2023/01/06 18:39:27;;;;;;;2.77;2.22;;;;;;;-4.10;100.00;100240.77;1692977;82;21633;-66
2023/01/06 18:42:23;;;;;;;2.22;2.02;;;;;;;-4.00;100.00;100242.73;1684095;83;21614;-65
2023/01/06 18:45:23;;;;;;;3.20;2.42;;;;;;;-3.94;100.00;100244.59;1698861;82;21776;-66
2023/01/06 18:48:00;;;;;;;2.50;2.30;;;;;;;-3.87;100.00;100248.20;1693610;82;21587;-67
2023/01/06 18:50:36;;;;;;;2.47;2.27;;;;;;;-3.86;100.00;100246.96;1703819;81;21625;-67
2023/01/06 18:53:18;;;;;;;2.30;2.10;;;;;;;-3.84;100.00;100250.44;1704719;81;21558;-65
2023/01/06 18:55:53;;;;;;;2.35;2.15;;;;;;;-3.79;100.00;100245.39;1696493;82;21523;-67